createdAt,value
2023-01-03T00:00:19.685Z,2.73
2023-01-03T00:01:52.746Z,2.90
2023-01-03T00:03:25.963Z,2.77
2023-01-03T00:04:57.661Z,3.23
2023-01-03T00:06:35.423Z,3.20
2023-01-03T00:08:07.048Z,2.87
2023-01-03T00:09:41.871Z,3.33
2023-01-03T00:11:52.546Z,4.30
2023-01-03T00:13:24.155Z,3.27
2023-01-03T00:14:55.971Z,3.43
2023-01-03T00:16:27.631Z,3.20
2023-01-03T00:17:59.265Z,3.87
2023-01-03T00:19:34.914Z,3.80
2023-01-03T00:21:06.672Z,3.00
2023-01-03T00:22:38.333Z,3.60
2023-01-03T00:24:10.642Z,3.63
2023-01-03T00:25:42.287Z,3.80
2023-01-03T00:27:15.067Z,3.40
2023-01-03T00:28:46.756Z,3.57
2023-01-03T00:30:18.482Z,3.30
2023-01-03T00:31:50.125Z,3.40
2023-01-03T00:33:21.776Z,3.63
2023-01-03T00:34:53.437Z,3.50
2023-01-03T00:36:25.092Z,3.30
2023-01-03T00:37:56.727Z,3.30
2023-01-03T00:39:28.607Z,3.10
2023-01-03T00:41:10.086Z,3.43
2023-01-03T00:43:00.606Z,2.50
2023-01-03T00:44:32.763Z,3.00
2023-01-03T00:46:05.636Z,3.13
2023-01-03T00:47:37.304Z,2.87
2023-01-03T00:49:09.692Z,2.93
2023-01-03T00:50:41.318Z,3.10
2023-01-03T00:52:12.950Z,3.50
2023-01-03T00:53:47.391Z,3.33
2023-01-03T00:55:19.138Z,3.10
2023-01-03T00:56:51.964Z,3.27
2023-01-03T00:58:23.633Z,3.10
2023-01-03T00:59:55.262Z,3.00
2023-01-03T01:01:30.880Z,3.60
2023-01-03T01:03:02.705Z,3.03
2023-01-03T01:04:34.563Z,3.00
2023-01-03T01:06:38.394Z,3.50
2023-01-03T01:08:10.019Z,3.50
2023-01-03T01:09:41.642Z,3.40
2023-01-03T01:11:14.409Z,3.07
2023-01-03T01:12:46.996Z,3.13
2023-01-03T01:14:21.282Z,3.10
2023-01-03T01:15:52.944Z,2.80
2023-01-03T01:17:24.603Z,3.37
2023-01-03T01:18:58.364Z,2.53
2023-01-03T01:20:29.994Z,3.27
2023-01-03T01:22:01.765Z,3.73
2023-01-03T01:23:36.722Z,2.63
2023-01-03T01:25:08.458Z,2.90
2023-01-03T01:26:40.733Z,3.13
2023-01-03T01:28:12.526Z,3.30
2023-01-03T01:29:44.238Z,2.73
2023-01-03T01:31:18.292Z,3.20
2023-01-03T01:32:49.998Z,3.10
2023-01-03T01:34:22.136Z,3.00
2023-01-03T01:35:54.448Z,3.10
2023-01-03T01:37:26.086Z,2.70
2023-01-03T01:39:03.677Z,2.90
2023-01-03T01:40:35.377Z,2.60
2023-01-03T01:42:31.474Z,3.30
2023-01-03T01:44:21.914Z,2.93
2023-01-03T01:45:53.697Z,2.70
2023-01-03T01:47:38.297Z,2.97
2023-01-03T01:49:16.972Z,3.40
2023-01-03T01:50:55.334Z,2.50
2023-01-03T01:52:28.346Z,2.90
2023-01-03T01:54:02.264Z,2.87
2023-01-03T01:55:57.609Z,2.80
2023-01-03T01:57:30.350Z,2.90
2023-01-03T01:59:03.318Z,2.70
2023-01-03T02:00:36.230Z,2.60
2023-01-03T02:02:09.670Z,2.87
2023-01-03T02:03:44.391Z,2.43
2023-01-03T02:05:18.015Z,3.27
2023-01-03T02:06:50.941Z,3.27
2023-01-03T02:08:23.105Z,2.73
2023-01-03T02:09:57.239Z,2.47
2023-01-03T02:11:37.769Z,2.77
2023-01-03T02:13:27.529Z,3.17
2023-01-03T02:15:02.181Z,2.73
2023-01-03T02:17:02.168Z,2.50
2023-01-03T02:18:59.583Z,2.83
2023-01-03T02:20:52.811Z,2.90
2023-01-03T02:23:03.629Z,2.47
2023-01-03T02:25:03.134Z,3.00
2023-01-03T02:27:01.304Z,3.10
2023-01-03T02:29:05.860Z,2.60
2023-01-03T02:30:46.316Z,2.60
2023-01-03T02:32:44.824Z,2.93
2023-01-03T02:34:28.440Z,2.77
2023-01-03T02:36:12.263Z,2.37
2023-01-03T02:37:52.171Z,3.10
2023-01-03T02:39:48.170Z,2.97
2023-01-03T02:41:45.934Z,2.73
2023-01-03T02:43:32.151Z,2.93
2023-01-03T02:45:34.886Z,3.00
2023-01-03T02:47:11.820Z,3.00
2023-01-03T02:48:58.853Z,2.67
2023-01-03T02:50:36.952Z,2.80
2023-01-03T02:52:15.807Z,2.50
2023-01-03T02:53:50.281Z,2.50
2023-01-03T02:55:28.285Z,2.60
2023-01-03T02:57:08.886Z,2.67
2023-01-03T02:58:46.017Z,2.60
2023-01-03T03:00:22.250Z,3.07
2023-01-03T03:01:54.475Z,3.00
2023-01-03T03:03:32.891Z,2.90
2023-01-03T03:05:15.143Z,2.83
2023-01-03T03:06:52.810Z,2.70
2023-01-03T03:08:24.466Z,2.80
2023-01-03T03:10:15.457Z,2.87
2023-01-03T03:12:07.463Z,3.50
2023-01-03T03:13:47.670Z,2.90
2023-01-03T03:15:23.138Z,2.87
2023-01-03T03:16:59.465Z,3.37
2023-01-03T03:18:58.894Z,3.17
2023-01-03T03:20:49.374Z,3.20
2023-01-03T03:23:00.523Z,2.90
2023-01-03T03:24:50.190Z,3.00
2023-01-03T03:26:30.627Z,3.60
2023-01-03T03:28:27.992Z,3.00
2023-01-03T03:30:02.137Z,3.70
2023-01-03T03:31:38.267Z,3.10
2023-01-03T03:33:13.192Z,3.20
2023-01-03T03:34:46.643Z,3.30
2023-01-03T03:36:47.179Z,3.53
2023-01-03T03:38:27.451Z,3.20
2023-01-03T03:40:17.620Z,2.93
2023-01-03T03:42:24.784Z,2.90
2023-01-03T03:44:26.178Z,2.90
2023-01-03T03:46:06.093Z,3.00
2023-01-03T03:47:46.826Z,3.20
2023-01-03T03:49:40.513Z,3.13
2023-01-03T03:51:17.739Z,3.60
2023-01-03T03:52:52.819Z,3.20
2023-01-03T03:54:25.762Z,3.30
2023-01-03T03:56:03.935Z,3.20
2023-01-03T03:57:45.039Z,3.10
2023-01-03T03:59:20.296Z,3.17
2023-01-03T04:00:54.688Z,3.10
2023-01-03T04:02:29.126Z,3.47
2023-01-03T04:04:07.658Z,3.20
2023-01-03T04:05:43.979Z,3.20
2023-01-03T04:07:15.618Z,3.33
2023-01-03T04:08:47.492Z,2.67
2023-01-03T04:10:20.567Z,2.87
2023-01-03T04:11:52.228Z,3.03
2023-01-03T04:13:24.865Z,3.10
2023-01-03T04:14:56.513Z,3.07
2023-01-03T04:16:28.216Z,3.87
2023-01-03T04:18:02.378Z,2.47
2023-01-03T04:19:34.069Z,2.90
2023-01-03T04:21:05.902Z,3.10
2023-01-03T04:22:37.928Z,2.90
2023-01-03T04:24:09.590Z,3.27
2023-01-03T04:25:41.214Z,2.83
2023-01-03T04:27:12.818Z,3.03
2023-01-03T04:28:44.430Z,3.00
2023-01-03T04:30:16.248Z,3.33
2023-01-03T04:31:47.986Z,3.30
2023-01-03T04:33:19.719Z,3.40
2023-01-03T04:34:51.391Z,3.57
2023-01-03T04:36:23.039Z,3.23
2023-01-03T04:37:54.655Z,3.13
2023-01-03T04:39:26.296Z,3.30
2023-01-03T04:41:07.634Z,2.93
2023-01-03T04:42:58.104Z,3.07
2023-01-03T04:44:29.713Z,3.00
2023-01-03T04:46:01.563Z,3.00
2023-01-03T04:47:33.294Z,3.13
2023-01-03T04:49:06.957Z,3.07
2023-01-03T04:50:38.626Z,3.53
2023-01-03T04:52:10.277Z,3.20
2023-01-03T04:53:41.903Z,3.17
2023-01-03T04:55:13.580Z,3.37
2023-01-03T04:56:45.165Z,3.27
2023-01-03T04:58:17.255Z,3.70
2023-01-03T04:59:48.888Z,2.83
2023-01-03T05:01:20.824Z,3.10
2023-01-03T05:02:52.526Z,2.93
2023-01-03T05:04:24.247Z,3.50
2023-01-03T05:06:00.785Z,3.33
2023-01-03T05:07:32.787Z,2.70
2023-01-03T05:09:04.629Z,3.13
2023-01-03T05:10:39.041Z,3.50
2023-01-03T05:12:12.131Z,3.30
2023-01-03T05:13:44.089Z,3.17
2023-01-03T05:15:15.843Z,3.20
2023-01-03T05:16:47.867Z,3.40
2023-01-03T05:18:19.585Z,4.30
2023-01-03T05:20:10.568Z,4.60
2023-01-03T05:22:00.879Z,4.37
2023-01-03T05:23:51.176Z,4.67
2023-01-03T05:25:41.575Z,4.70
2023-01-03T05:27:13.352Z,4.57
2023-01-03T05:28:48.056Z,5.07
2023-01-03T05:30:19.684Z,5.10
2023-01-03T05:31:51.404Z,5.40
2023-01-03T05:33:23.091Z,5.43
2023-01-03T05:34:54.703Z,5.93
2023-01-03T05:36:26.357Z,5.20
2023-01-03T05:37:58.055Z,5.40
2023-01-03T05:39:29.741Z,5.90
2023-01-03T05:41:02.994Z,6.10
2023-01-03T05:42:34.828Z,5.60
2023-01-03T05:44:07.117Z,5.60
2023-01-03T05:45:39.576Z,6.73
2023-01-03T05:47:11.221Z,6.40
2023-01-03T05:48:42.886Z,7.40
2023-01-03T05:50:14.524Z,6.53
2023-01-03T05:51:46.189Z,6.77
2023-01-03T05:53:18.209Z,7.50
2023-01-03T05:54:49.849Z,7.40
2023-01-03T05:56:21.544Z,7.63
2023-01-03T05:57:53.435Z,6.90
2023-01-03T05:59:26.862Z,6.40
2023-01-03T06:00:58.545Z,6.93
2023-01-03T06:02:30.208Z,6.03
2023-01-03T06:04:01.965Z,6.83
2023-01-03T06:05:33.834Z,6.33
2023-01-03T06:07:05.612Z,6.63
2023-01-03T06:08:37.448Z,6.50
2023-01-03T06:10:09.606Z,6.20
2023-01-03T06:11:41.410Z,6.20
2023-01-03T06:13:13.073Z,5.90
2023-01-03T06:14:44.821Z,5.27
2023-01-03T06:16:37.483Z,5.47
2023-01-03T06:18:09.208Z,5.30
2023-01-03T06:19:40.890Z,5.70
2023-01-03T06:21:12.585Z,5.57
2023-01-03T06:22:44.281Z,5.53
2023-01-03T06:24:15.899Z,4.90
2023-01-03T06:25:47.574Z,5.50
2023-01-03T06:27:19.307Z,4.97
2023-01-03T06:28:52.080Z,4.60
2023-01-03T06:30:23.790Z,4.40
2023-01-03T06:31:55.530Z,3.83
2023-01-03T06:33:27.572Z,4.00
2023-01-03T06:34:59.620Z,4.13
2023-01-03T06:36:34.726Z,4.37
2023-01-03T06:38:07.146Z,4.43
2023-01-03T06:39:48.648Z,4.97
2023-01-03T06:41:27.798Z,3.80
2023-01-03T06:43:02.796Z,4.03
2023-01-03T06:44:40.209Z,4.20
2023-01-03T06:46:43.295Z,4.40
2023-01-03T06:48:39.303Z,4.17
2023-01-03T06:50:30.952Z,3.60
2023-01-03T06:52:52.437Z,3.97
2023-01-03T06:54:51.751Z,4.10
2023-01-03T06:56:27.663Z,3.73
2023-01-03T06:58:03.014Z,3.80
2023-01-03T06:59:34.843Z,3.70
2023-01-03T07:01:14.454Z,3.63
2023-01-03T07:02:46.548Z,4.40
2023-01-03T07:04:23.097Z,4.00
2023-01-03T07:05:56.326Z,3.80
2023-01-03T07:07:28.711Z,3.90
2023-01-03T07:09:03.563Z,3.70
2023-01-03T07:10:38.343Z,3.33
2023-01-03T07:12:37.274Z,4.30
2023-01-03T07:14:11.511Z,3.60
2023-01-03T07:15:49.672Z,4.10
2023-01-03T07:17:24.324Z,3.40
2023-01-03T07:19:08.161Z,3.73
2023-01-03T07:20:52.846Z,3.80
2023-01-03T07:22:33.974Z,3.50
2023-01-03T07:24:16.807Z,3.63
2023-01-03T07:25:58.184Z,3.20
2023-01-03T07:27:43.059Z,3.70
2023-01-03T07:29:18.437Z,3.50
2023-01-03T07:30:52.914Z,3.40
2023-01-03T07:32:25.135Z,3.40
2023-01-03T07:34:11.498Z,3.43
2023-01-03T07:35:46.564Z,3.33
2023-01-03T07:37:23.803Z,3.27
2023-01-03T07:38:56.200Z,3.00
2023-01-03T07:40:31.813Z,3.20
2023-01-03T07:42:25.007Z,3.30
2023-01-03T07:44:00.136Z,3.40
2023-01-03T07:45:36.248Z,3.60
2023-01-03T07:47:13.433Z,3.30
2023-01-03T07:48:49.529Z,3.30
2023-01-03T07:50:24.867Z,3.70
2023-01-03T07:51:56.697Z,3.20
2023-01-03T07:53:36.216Z,3.00
2023-01-03T07:55:10.216Z,3.13
2023-01-03T07:56:44.697Z,3.53
2023-01-03T07:58:21.964Z,2.90
2023-01-03T07:59:53.941Z,3.37
2023-01-03T08:01:26.750Z,2.77
2023-01-03T08:03:02.759Z,3.10
2023-01-03T08:06:26.345Z,3.30
2023-01-03T08:08:01.329Z,3.10
2023-01-03T08:09:55.400Z,3.13
2023-01-03T08:11:45.961Z,3.20
2023-01-03T08:13:27.171Z,3.40
2023-01-03T08:15:02.075Z,3.00
2023-01-03T08:16:38.660Z,3.50
2023-01-03T08:18:11.801Z,3.10
2023-01-03T08:19:45.963Z,3.73
2023-01-03T08:21:18.742Z,3.23
2023-01-03T08:22:53.270Z,3.40
2023-01-03T08:24:25.915Z,3.00
2023-01-03T08:26:19.253Z,3.33
2023-01-03T08:27:51.388Z,3.40
2023-01-03T08:29:31.673Z,3.10
2023-01-03T08:31:13.726Z,2.90
2023-01-03T08:32:46.043Z,3.57
2023-01-03T08:34:32.294Z,3.13
2023-01-03T08:36:08.219Z,3.40
2023-01-03T08:37:43.183Z,2.93
2023-01-03T08:39:29.048Z,3.33
2023-01-03T08:41:09.805Z,3.17
2023-01-03T08:42:44.417Z,3.13
2023-01-03T08:44:19.565Z,3.00
2023-01-03T08:45:51.221Z,3.30
2023-01-03T08:47:23.019Z,3.20
2023-01-03T08:48:55.481Z,3.03
2023-01-03T08:50:30.283Z,3.87
2023-01-03T08:52:01.885Z,3.23
2023-01-03T08:53:33.747Z,3.10
2023-01-03T08:55:06.165Z,3.00
2023-01-03T08:56:39.462Z,3.20
2023-01-03T08:58:11.248Z,2.80
2023-01-03T08:59:42.901Z,2.90
2023-01-03T09:01:14.749Z,3.00
2023-01-03T09:02:46.655Z,2.77
2023-01-03T09:04:18.522Z,2.70
2023-01-03T09:05:50.234Z,2.63
2023-01-03T09:07:21.888Z,2.30
2023-01-03T09:08:53.549Z,2.43
2023-01-03T09:10:26.101Z,2.87
2023-01-03T09:11:57.749Z,2.90
2023-01-03T09:13:29.380Z,2.47
2023-01-03T09:15:01.245Z,2.10
2023-01-03T09:16:33.007Z,2.60
2023-01-03T09:18:04.749Z,2.50
2023-01-03T09:19:36.472Z,2.53
2023-01-03T09:21:08.980Z,2.03
2023-01-03T09:22:41.248Z,2.60
2023-01-03T09:24:12.877Z,2.40
2023-01-03T09:25:46.366Z,2.70
2023-01-03T09:27:18.015Z,2.30
2023-01-03T09:28:50.072Z,2.40
2023-01-03T09:30:21.724Z,2.30
2023-01-03T09:31:53.545Z,2.40
2023-01-03T09:33:25.365Z,2.57
2023-01-03T09:34:57.001Z,2.57
2023-01-03T09:36:28.711Z,2.60
2023-01-03T09:38:03.166Z,3.27
2023-01-03T09:39:34.821Z,2.43
2023-01-03T09:41:24.025Z,2.33
2023-01-03T09:43:18.557Z,2.53
2023-01-03T09:44:54.136Z,2.90
2023-01-03T09:46:27.611Z,2.70
2023-01-03T09:48:02.836Z,2.53
2023-01-03T09:49:51.871Z,2.40
2023-01-03T09:51:57.907Z,2.27
2023-01-03T09:53:57.954Z,2.20
2023-01-03T09:56:03.931Z,3.73
2023-01-03T09:57:55.203Z,3.83
2023-01-03T09:59:50.084Z,3.50
2023-01-03T10:01:58.493Z,3.67
2023-01-03T10:03:52.885Z,4.13
2023-01-03T10:05:33.935Z,4.57
2023-01-03T10:07:28.696Z,3.63
2023-01-03T10:09:18.656Z,3.73
2023-01-03T10:11:04.343Z,3.60
2023-01-03T10:12:41.835Z,5.43
2023-01-03T10:14:48.633Z,5.17
2023-01-03T10:16:35.322Z,9.57
2023-01-03T10:18:28.248Z,5.20
2023-01-03T10:20:20.539Z,5.83
2023-01-03T10:22:00.383Z,5.20
2023-01-03T10:23:32.162Z,5.27
2023-01-03T10:25:11.903Z,4.77
2023-01-03T10:26:43.634Z,4.73
2023-01-03T10:28:25.357Z,5.50
2023-01-03T10:30:01.761Z,4.10
2023-01-03T10:31:45.121Z,4.77
2023-01-03T10:33:49.747Z,4.40
2023-01-03T10:35:24.791Z,5.43
2023-01-03T10:36:56.457Z,3.93
2023-01-03T10:38:29.045Z,3.50
2023-01-03T10:40:05.033Z,3.70
2023-01-03T10:41:44.179Z,3.83
2023-01-03T10:43:20.273Z,3.27
2023-01-03T10:45:00.538Z,3.20
2023-01-03T10:46:32.366Z,3.70
2023-01-03T10:48:05.396Z,3.20
2023-01-03T10:49:37.012Z,3.63
2023-01-03T10:51:26.480Z,3.20
2023-01-03T10:53:07.792Z,3.10
2023-01-03T10:54:56.256Z,3.40
2023-01-03T10:56:30.370Z,3.03
2023-01-03T10:58:12.827Z,3.00
2023-01-03T10:59:50.175Z,3.03
2023-01-03T11:01:24.202Z,2.73
2023-01-03T11:03:17.293Z,3.10
2023-01-03T11:05:12.201Z,3.57
2023-01-03T11:07:03.897Z,3.00
2023-01-03T11:08:45.572Z,6.50
2023-01-03T11:10:18.843Z,4.23
2023-01-03T11:11:59.464Z,6.40
2023-01-03T11:13:38.532Z,6.27
2023-01-03T11:15:20.144Z,6.10
2023-01-03T11:16:58.470Z,5.60
2023-01-03T11:18:31.333Z,6.07
2023-01-03T11:20:17.084Z,5.00
2023-01-03T11:21:55.993Z,4.30
2023-01-03T11:23:48.883Z,5.10
2023-01-03T11:25:29.539Z,5.03
2023-01-03T11:27:19.807Z,4.80
2023-01-03T11:29:05.668Z,4.40
2023-01-03T11:30:59.050Z,3.90
2023-01-03T11:32:52.540Z,4.00
2023-01-03T11:35:28.044Z,3.50
2023-01-03T11:36:54.090Z,4.03
2023-01-03T11:38:51.741Z,3.90
2023-01-03T11:40:36.388Z,3.50
2023-01-03T11:42:32.065Z,4.00
2023-01-03T11:44:45.592Z,3.40
2023-01-03T11:46:42.015Z,4.10
2023-01-03T11:48:41.079Z,5.13
2023-01-03T11:50:48.636Z,4.30
2023-01-03T11:52:32.628Z,4.30
2023-01-03T11:54:28.118Z,4.17
2023-01-03T11:56:29.842Z,4.40
2023-01-03T11:58:26.121Z,4.30
2023-01-03T12:00:13.312Z,3.63
2023-01-03T12:02:04.974Z,3.60
2023-01-03T12:04:05.749Z,3.50
2023-01-03T12:05:40.109Z,3.17
2023-01-03T12:07:47.063Z,3.10
2023-01-03T12:09:23.441Z,2.70
2023-01-03T12:11:20.550Z,3.43
2023-01-03T12:13:14.457Z,3.20
2023-01-03T12:14:54.127Z,4.33
2023-01-03T12:16:40.783Z,3.50
2023-01-03T12:18:22.156Z,4.07
2023-01-03T12:20:24.598Z,3.00
2023-01-03T12:22:02.505Z,2.73
2023-01-03T12:23:44.062Z,2.67
2023-01-03T12:25:19.534Z,2.80
2023-01-03T12:26:58.034Z,2.47
2023-01-03T12:28:40.916Z,2.67
2023-01-03T12:30:21.847Z,2.27
2023-01-03T12:32:11.791Z,2.40
2023-01-03T12:34:21.714Z,2.13
2023-01-03T12:35:59.227Z,2.20
2023-01-03T12:37:36.276Z,1.97
2023-01-03T12:39:33.024Z,1.90
2023-01-03T12:41:17.694Z,1.97
2023-01-03T12:42:57.752Z,2.10
2023-01-03T12:44:36.212Z,2.20
2023-01-03T12:46:19.284Z,2.30
2023-01-03T12:47:57.513Z,2.10
2023-01-03T12:49:54.847Z,2.03
2023-01-03T12:51:27.931Z,1.60
2023-01-03T12:53:15.707Z,2.10
2023-01-03T12:55:00.808Z,2.23
2023-01-03T12:56:53.842Z,1.80
2023-01-03T12:58:53.268Z,2.10
2023-01-03T13:00:55.229Z,2.07
2023-01-03T13:02:49.735Z,1.60
2023-01-03T13:04:37.995Z,1.50
2023-01-03T13:06:39.256Z,1.87
2023-01-03T13:08:21.990Z,1.30
2023-01-03T13:10:04.144Z,1.50
2023-01-03T13:11:45.630Z,1.83
2023-01-03T13:13:20.032Z,1.23
2023-01-03T13:15:18.480Z,1.50
2023-01-03T13:16:56.296Z,1.27
2023-01-03T13:18:31.736Z,1.60
2023-01-03T13:20:36.279Z,1.33
2023-01-03T13:22:45.261Z,1.67
2023-01-03T13:24:46.588Z,1.50
2023-01-03T13:26:28.887Z,1.30
2023-01-03T13:28:05.669Z,1.50
2023-01-03T13:29:43.378Z,1.00
2023-01-03T13:31:17.005Z,1.47
2023-01-03T13:33:11.476Z,1.00
2023-01-03T13:34:43.709Z,1.07
2023-01-03T13:36:18.434Z,1.23
2023-01-03T13:37:51.173Z,1.00
2023-01-03T13:39:41.374Z,1.10
2023-01-03T13:41:36.292Z,1.20
2023-01-03T13:43:07.934Z,1.10
2023-01-03T13:44:39.644Z,1.40
2023-01-03T13:46:29.033Z,1.33
2023-01-03T13:48:22.265Z,1.50
2023-01-03T13:49:54.335Z,1.83
2023-01-03T13:51:40.187Z,1.77
2023-01-03T13:53:11.847Z,4.17
2023-01-03T13:54:58.051Z,2.87
2023-01-03T13:56:49.702Z,2.63
2023-01-03T13:58:24.427Z,2.67
2023-01-03T13:59:58.943Z,2.20
2023-01-03T14:02:06.084Z,2.30
2023-01-03T14:04:12.894Z,2.37
2023-01-03T14:06:37.088Z,2.07
2023-01-03T14:08:30.440Z,1.87
2023-01-03T14:10:32.353Z,2.10
2023-01-03T14:12:35.958Z,2.00
2023-01-03T14:14:13.336Z,2.03
2023-01-03T14:15:46.978Z,1.67
2023-01-03T14:17:23.612Z,1.90
2023-01-03T14:19:06.376Z,1.60
2023-01-03T14:20:39.476Z,1.70
2023-01-03T14:22:30.062Z,2.00
2023-01-03T14:24:04.628Z,1.73
2023-01-03T14:25:41.789Z,1.50
2023-01-03T14:27:17.557Z,1.40
2023-01-03T14:28:53.009Z,1.70
2023-01-03T14:30:30.775Z,1.83
2023-01-03T14:32:02.542Z,1.67
2023-01-03T14:33:42.549Z,1.80
2023-01-03T14:35:38.278Z,2.00
2023-01-03T14:37:14.183Z,1.50
2023-01-03T14:38:51.849Z,2.00
2023-01-03T14:40:23.544Z,1.93
2023-01-03T14:41:56.537Z,1.70
2023-01-03T14:43:30.165Z,2.47
2023-01-03T14:45:05.060Z,1.93
2023-01-03T14:46:40.667Z,1.80
2023-01-03T14:48:17.295Z,2.03
2023-01-03T14:49:52.638Z,1.63
2023-01-03T14:51:24.641Z,1.90
2023-01-03T14:53:02.128Z,1.60
2023-01-03T14:54:35.702Z,1.90
2023-01-03T14:56:10.209Z,3.30
2023-01-03T14:57:43.887Z,4.03
2023-01-03T14:59:21.610Z,5.90
2023-01-03T15:00:54.662Z,4.40
2023-01-03T15:02:30.524Z,4.50
2023-01-03T15:04:02.785Z,3.83
2023-01-03T15:05:38.429Z,3.93
2023-01-03T15:07:28.873Z,3.73
2023-01-03T15:09:12.929Z,3.20
2023-01-03T15:10:55.768Z,3.53
2023-01-03T15:12:30.321Z,3.90
2023-01-03T15:14:12.761Z,2.90
2023-01-03T15:15:44.979Z,2.90
2023-01-03T15:17:26.221Z,3.37
2023-01-03T15:19:27.171Z,2.73
2023-01-03T15:21:01.281Z,2.53
2023-01-03T15:22:40.714Z,2.57
2023-01-03T15:24:21.301Z,2.70
2023-01-03T15:25:53.110Z,2.50
2023-01-03T15:27:40.058Z,2.70
2023-01-03T15:29:14.228Z,2.33
2023-01-03T15:30:49.483Z,2.60
2023-01-03T15:32:21.242Z,2.60
2023-01-03T15:34:33.877Z,2.13
2023-01-03T15:36:18.191Z,2.30
2023-01-03T15:37:54.697Z,2.00
2023-01-03T15:39:39.154Z,2.23
2023-01-03T15:42:00.109Z,1.80
2023-01-03T15:43:41.919Z,1.80
2023-01-03T15:45:35.590Z,1.67
2023-01-03T15:47:08.648Z,1.93
2023-01-03T15:48:44.763Z,1.87
2023-01-03T15:50:18.972Z,1.87
2023-01-03T15:51:50.865Z,1.60
2023-01-03T15:53:36.607Z,1.93
2023-01-03T15:55:15.439Z,1.97
2023-01-03T15:57:01.640Z,2.00
2023-01-03T15:58:35.286Z,1.83
2023-01-03T16:00:10.514Z,1.70
2023-01-03T16:01:42.320Z,1.87
2023-01-03T16:03:17.742Z,1.97
2023-01-03T16:04:50.432Z,2.07
2023-01-03T16:06:22.185Z,2.20
2023-01-03T16:07:53.938Z,1.87
2023-01-03T16:09:25.702Z,2.20
2023-01-03T16:10:59.409Z,2.73
2023-01-03T16:12:35.072Z,1.90
2023-01-03T16:14:20.121Z,2.23
2023-01-03T16:15:52.947Z,2.60
2023-01-03T16:17:28.200Z,2.33
2023-01-03T16:19:00.422Z,2.00
2023-01-03T16:20:32.205Z,1.70
2023-01-03T16:23:57.798Z,1.90
2023-01-03T16:25:29.821Z,2.00
2023-01-03T16:27:12.072Z,2.10
2023-01-03T16:28:43.885Z,1.90
2023-01-03T16:30:15.658Z,1.43
2023-01-03T16:31:47.878Z,1.93
2023-01-03T16:33:20.945Z,2.00
2023-01-03T16:34:53.615Z,1.80
2023-01-03T16:36:39.267Z,1.90
2023-01-03T16:38:14.219Z,1.60
2023-01-03T16:39:48.338Z,1.70
2023-01-03T16:41:20.614Z,1.77
2023-01-03T16:42:52.706Z,1.87
2023-01-03T16:44:24.341Z,2.00
2023-01-03T16:45:59.191Z,1.90
2023-01-03T16:47:33.689Z,1.70
2023-01-03T16:49:06.052Z,2.27
2023-01-03T16:50:40.607Z,1.87
2023-01-03T16:52:17.825Z,1.63
2023-01-03T16:53:49.568Z,2.10
2023-01-03T16:55:27.772Z,1.70
2023-01-03T16:57:00.031Z,1.77
2023-01-03T16:58:31.735Z,1.60
2023-01-03T17:00:12.858Z,2.10
2023-01-03T17:01:44.575Z,1.70
2023-01-03T17:03:16.378Z,1.73
2023-01-03T17:04:48.160Z,2.00
2023-01-03T17:06:33.516Z,1.37
2023-01-03T17:08:27.777Z,1.60
2023-01-03T17:09:59.854Z,1.60
2023-01-03T17:11:33.612Z,1.63
2023-01-03T17:13:12.529Z,1.70
2023-01-03T17:14:44.851Z,1.60
2023-01-03T17:16:19.180Z,1.60
2023-01-03T17:17:50.927Z,1.87
2023-01-03T17:21:29.617Z,1.80
2023-01-03T17:23:01.888Z,1.63
2023-01-03T17:24:34.107Z,2.13
2023-01-03T17:26:06.075Z,2.30
2023-01-03T17:27:39.079Z,1.80
2023-01-03T17:29:19.696Z,1.80
2023-01-03T17:30:56.345Z,2.00
2023-01-03T17:32:28.490Z,1.93
2023-01-03T17:34:00.274Z,2.03
2023-01-03T17:35:32.389Z,1.70
2023-01-03T17:37:04.268Z,1.90
2023-01-03T17:38:35.984Z,1.83
2023-01-03T17:40:29.247Z,2.23
2023-01-03T17:42:16.001Z,2.23
2023-01-03T17:43:47.900Z,1.73
2023-01-03T17:45:38.480Z,2.07
2023-01-03T17:47:34.791Z,1.60
2023-01-03T17:49:24.793Z,1.80
2023-01-03T17:50:57.507Z,2.10
2023-01-03T17:52:34.331Z,2.07
2023-01-03T17:54:05.970Z,1.57
2023-01-03T17:55:39.717Z,2.10
2023-01-03T17:57:12.904Z,1.77
2023-01-03T17:58:52.094Z,1.80
2023-01-03T18:00:29.265Z,2.40
2023-01-03T18:02:01.138Z,1.97
2023-01-03T18:03:32.993Z,2.20
2023-01-03T18:05:16.318Z,1.77
2023-01-03T18:06:58.865Z,1.90
2023-01-03T18:08:30.601Z,2.03
2023-01-03T18:10:02.845Z,1.90
2023-01-03T18:11:34.803Z,1.90
2023-01-03T18:13:19.506Z,1.90
2023-01-03T18:14:51.168Z,1.70
2023-01-03T18:16:23.741Z,1.93
2023-01-03T18:17:55.688Z,2.80
2023-01-03T18:19:27.393Z,2.00
2023-01-03T18:20:59.261Z,2.50
2023-01-03T18:22:30.952Z,2.13
2023-01-03T18:24:29.124Z,1.90
2023-01-03T18:26:05.263Z,3.07
2023-01-03T18:27:36.952Z,3.20
2023-01-03T18:29:13.722Z,3.60
2023-01-03T18:30:45.438Z,3.60
2023-01-03T18:32:31.577Z,3.80
2023-01-03T18:34:04.497Z,3.80
2023-01-03T18:35:38.259Z,3.57
2023-01-03T18:37:10.244Z,3.10
2023-01-03T18:38:41.942Z,3.07
2023-01-03T18:40:18.709Z,2.53
2023-01-03T18:41:50.512Z,2.97
2023-01-03T18:43:23.829Z,2.60
2023-01-03T18:44:55.455Z,2.60
2023-01-03T18:46:28.668Z,2.63
2023-01-03T18:48:00.412Z,2.63
2023-01-03T18:49:32.057Z,2.43
2023-01-03T18:51:03.873Z,2.53
2023-01-03T18:52:38.243Z,2.30
2023-01-03T18:54:15.934Z,2.10
2023-01-03T18:55:48.277Z,2.63
2023-01-03T18:57:19.978Z,1.80
2023-01-03T18:58:54.285Z,2.10
2023-01-03T19:00:29.765Z,2.00
2023-01-03T19:02:01.537Z,3.00
2023-01-03T19:03:34.814Z,2.57
2023-01-03T19:05:06.982Z,2.27
2023-01-03T19:06:43.169Z,2.40
2023-01-03T19:08:16.886Z,1.90
2023-01-03T19:09:49.262Z,2.20
2023-01-03T19:11:28.384Z,2.33
2023-01-03T19:13:00.071Z,2.30
2023-01-03T19:14:31.732Z,2.40
2023-01-03T19:16:03.548Z,2.60
2023-01-03T19:17:35.187Z,2.00
2023-01-03T19:19:07.581Z,2.07
2023-01-03T19:20:39.279Z,2.00
2023-01-03T19:22:23.480Z,2.00
2023-01-03T19:24:24.106Z,2.90
2023-01-03T19:25:55.873Z,2.00
2023-01-03T19:28:00.275Z,2.10
2023-01-03T19:29:36.981Z,2.27
2023-01-03T19:31:11.754Z,2.20
2023-01-03T19:32:44.922Z,1.90
2023-01-03T19:34:18.920Z,1.73
2023-01-03T19:35:50.608Z,1.80
2023-01-03T19:37:23.412Z,1.83
2023-01-03T19:38:55.072Z,1.90
2023-01-03T19:40:30.751Z,1.90
2023-01-03T19:42:21.402Z,2.17
2023-01-03T19:43:53.036Z,2.27
2023-01-03T19:45:27.832Z,1.80
2023-01-03T19:46:59.956Z,1.97
2023-01-03T19:48:31.965Z,1.70
2023-01-03T19:50:18.273Z,1.87
2023-01-03T19:51:50.108Z,1.87
2023-01-03T19:53:21.759Z,1.77
2023-01-03T19:54:53.385Z,1.93
2023-01-03T19:56:25.029Z,2.20
2023-01-03T19:57:57.825Z,1.80
2023-01-03T19:59:34.779Z,1.97
2023-01-03T20:01:07.152Z,1.80
2023-01-03T20:02:40.693Z,1.53
2023-01-03T20:04:13.023Z,2.00
2023-01-03T20:05:44.861Z,1.80
2023-01-03T20:07:16.520Z,1.87
2023-01-03T20:08:48.171Z,1.90
2023-01-03T20:10:25.770Z,1.57
2023-01-03T20:11:57.415Z,1.70
2023-01-03T20:13:29.076Z,1.73
2023-01-03T20:15:06.852Z,1.50
2023-01-03T20:16:39.250Z,1.60
2023-01-03T20:18:24.089Z,1.97
2023-01-03T20:19:55.993Z,1.80
2023-01-03T20:21:31.747Z,1.73
2023-01-03T20:23:12.780Z,1.47
2023-01-03T20:24:44.487Z,2.00
2023-01-03T20:26:20.711Z,1.93
2023-01-03T20:27:53.287Z,1.80
2023-01-03T20:29:24.969Z,2.17
2023-01-03T20:31:00.685Z,1.90
2023-01-03T20:32:32.601Z,1.73
2023-01-03T20:34:06.381Z,1.80
2023-01-03T20:37:30.352Z,1.80
2023-01-03T20:39:02.056Z,1.60
2023-01-03T20:40:33.697Z,1.70
2023-01-03T20:42:21.793Z,2.37
2023-01-03T20:43:53.431Z,1.70
2023-01-03T20:45:25.195Z,1.63
2023-01-03T20:46:57.214Z,2.00
2023-01-03T20:48:30.285Z,1.47
2023-01-03T20:50:02.026Z,1.40
2023-01-03T20:51:34.928Z,2.00
2023-01-03T20:53:06.615Z,1.73
2023-01-03T20:54:38.234Z,1.70
2023-01-03T20:56:13.685Z,1.70
2023-01-03T20:57:45.643Z,1.40
2023-01-03T20:59:20.365Z,1.47
2023-01-03T21:00:56.795Z,1.93
2023-01-03T21:02:33.591Z,1.70
2023-01-03T21:04:05.453Z,1.90
2023-01-03T21:05:37.829Z,2.10
2023-01-03T21:07:48.302Z,1.90
2023-01-03T21:09:19.941Z,1.50
2023-01-03T21:10:54.829Z,1.90
2023-01-03T21:12:27.276Z,1.80
2023-01-03T21:14:02.464Z,1.70
2023-01-03T21:15:35.006Z,1.83
2023-01-03T21:17:10.982Z,1.57
2023-01-03T21:18:42.646Z,1.83
2023-01-03T21:20:20.119Z,1.77
2023-01-03T21:21:54.090Z,1.60
2023-01-03T21:23:25.917Z,2.37
2023-01-03T21:24:58.021Z,1.60
2023-01-03T21:26:29.812Z,1.90
2023-01-03T21:28:02.523Z,1.30
2023-01-03T21:29:34.195Z,1.63
2023-01-03T21:31:05.922Z,1.60
2023-01-03T21:32:37.680Z,1.93
2023-01-03T21:34:20.679Z,1.87
2023-01-03T21:35:52.526Z,1.70
2023-01-03T21:37:24.147Z,1.50
2023-01-03T21:38:56.723Z,1.70
2023-01-03T21:40:29.472Z,2.00
2023-01-03T21:42:19.964Z,1.63
2023-01-03T21:43:55.582Z,1.73
2023-01-03T21:45:58.756Z,1.50
2023-01-03T21:47:31.295Z,1.90
2023-01-03T21:49:03.245Z,1.50
2023-01-03T21:50:38.756Z,1.63
2023-01-03T21:52:10.392Z,1.90
2023-01-03T21:53:42.784Z,1.63
2023-01-03T21:55:14.473Z,1.83
2023-01-03T21:56:46.989Z,1.70
2023-01-03T21:58:23.373Z,1.80
2023-01-03T21:59:55.040Z,1.67